createdAt,value
2022-11-19T00:04:35.689Z,13.24
2022-11-19T00:09:33.142Z,13.42
2022-11-19T00:14:29.856Z,13.65
2022-11-19T00:19:27.290Z,13.58
2022-11-19T00:24:26.902Z,13.52
2022-11-19T00:29:26.242Z,13.35
2022-11-19T00:34:27.678Z,13.15
2022-11-19T00:39:25.914Z,13.10
2022-11-19T00:44:22.570Z,12.85
2022-11-19T00:49:19.368Z,12.90
2022-11-19T00:54:19.146Z,12.87
2022-11-19T00:59:23.800Z,12.52
2022-11-19T01:04:20.554Z,12.31
2022-11-19T01:09:17.224Z,12.56
2022-11-19T01:14:13.881Z,12.31
2022-11-19T01:19:15.743Z,12.52
2022-11-19T01:24:14.855Z,12.57
2022-11-19T01:29:14.951Z,12.69
2022-11-19T01:34:12.274Z,12.52
2022-11-19T01:39:09.859Z,12.62
2022-11-19T01:44:07.169Z,12.66
2022-11-19T01:49:05.585Z,12.57
2022-11-19T01:54:05.867Z,12.69
2022-11-19T01:59:06.743Z,12.68
2022-11-19T02:04:04.374Z,12.75
2022-11-19T02:09:00.992Z,12.82
2022-11-19T02:14:02.645Z,12.80
2022-11-19T02:19:05.585Z,12.71
2022-11-19T02:24:23.131Z,12.73
2022-11-19T02:29:29.648Z,12.68
2022-11-19T02:34:28.999Z,12.74
2022-11-19T02:39:27.779Z,12.84
2022-11-19T02:44:45.151Z,12.71
2022-11-19T02:49:45.778Z,12.75
2022-11-19T02:54:42.434Z,12.90
2022-11-19T02:59:59.425Z,13.06
2022-11-19T03:04:59.855Z,13.00
2022-11-19T03:09:57.545Z,12.78
2022-11-19T03:15:12.653Z,12.97
2022-11-19T03:20:15.852Z,13.12
2022-11-19T03:25:16.315Z,13.03
2022-11-19T03:30:13.786Z,13.12
2022-11-19T03:35:16.555Z,13.00
2022-11-19T03:40:17.759Z,12.94
2022-11-19T03:45:16.538Z,12.95
2022-11-19T03:50:18.727Z,12.92
2022-11-19T03:55:15.897Z,13.06
2022-11-19T04:00:12.880Z,12.96
2022-11-19T04:05:12.472Z,12.77
2022-11-19T04:10:11.053Z,12.63
2022-11-19T04:15:09.706Z,12.46
2022-11-19T04:20:09.374Z,12.44
2022-11-19T04:25:06.323Z,12.47
2022-11-19T04:30:04.018Z,12.40
2022-11-19T04:35:00.739Z,12.34
2022-11-19T04:39:57.359Z,12.27
2022-11-19T04:44:54.012Z,12.37
2022-11-19T04:49:52.348Z,12.38
2022-11-19T04:54:49.017Z,12.31
2022-11-19T04:59:45.718Z,12.42
2022-11-19T05:04:44.793Z,12.49
2022-11-19T05:09:42.016Z,12.52
2022-11-19T05:14:38.674Z,12.51
2022-11-19T05:19:36.817Z,12.66
2022-11-19T05:24:33.669Z,12.71
2022-11-19T05:29:31.626Z,12.64
2022-11-19T05:34:28.505Z,12.68
2022-11-19T05:39:25.431Z,12.86
2022-11-19T05:44:27.466Z,12.93
2022-11-19T05:49:32.938Z,12.79
2022-11-19T05:54:30.013Z,12.68
2022-11-19T05:59:26.719Z,12.77
2022-11-19T06:04:23.989Z,12.88
2022-11-19T06:09:23.204Z,12.83
2022-11-19T06:14:34.190Z,12.79
2022-11-19T06:19:31.713Z,12.86
2022-11-19T06:24:29.383Z,12.74
2022-11-19T06:29:26.242Z,12.95
2022-11-19T06:34:23.341Z,13.15
2022-11-19T06:39:21.109Z,13.24
2022-11-19T06:44:18.890Z,13.33
2022-11-19T06:49:19.918Z,13.18
2022-11-19T06:54:17.149Z,13.03
2022-11-19T06:59:17.810Z,13.08
2022-11-19T07:04:14.804Z,12.94
2022-11-19T07:09:14.805Z,13.27
2022-11-19T07:14:15.889Z,13.29
2022-11-19T07:19:13.369Z,13.31
2022-11-19T07:24:10.147Z,13.30
2022-11-19T07:29:07.968Z,13.27
2022-11-19T07:34:05.955Z,13.51
2022-11-19T07:39:05.381Z,13.47
2022-11-19T07:44:02.040Z,13.62
2022-11-19T07:49:02.083Z,13.63
2022-11-19T07:53:58.848Z,13.66
2022-11-19T07:59:00.564Z,13.58
2022-11-19T08:03:57.389Z,13.59
2022-11-19T08:08:54.451Z,13.72
2022-11-19T08:13:56.400Z,13.64
2022-11-19T08:18:53.948Z,13.78
2022-11-19T08:23:50.722Z,13.49
2022-11-19T08:28:47.657Z,13.74
2022-11-19T08:33:46.499Z,13.67
2022-11-19T08:38:46.917Z,13.96
2022-11-19T08:43:43.959Z,14.25
2022-11-19T08:48:40.562Z,14.42
2022-11-19T08:53:37.548Z,14.13
2022-11-19T08:58:35.330Z,13.89
2022-11-19T09:03:32.057Z,14.06
2022-11-19T09:08:28.599Z,13.95
2022-11-19T09:13:25.246Z,13.75
2022-11-19T09:18:22.579Z,13.77
2022-11-19T09:23:19.440Z,13.91
2022-11-19T09:28:16.098Z,14.09
2022-11-19T09:33:12.879Z,14.29
2022-11-19T09:38:12.260Z,14.60
2022-11-19T09:43:15.709Z,14.46
2022-11-19T09:48:18.401Z,14.43
2022-11-19T09:53:18.238Z,14.85
2022-11-19T09:58:17.045Z,14.87
2022-11-19T10:03:16.862Z,14.60
2022-11-19T10:08:25.007Z,14.61
2022-11-19T10:13:27.619Z,15.05
2022-11-19T10:18:39.320Z,14.64
2022-11-19T10:23:46.935Z,14.75
2022-11-19T10:28:49.041Z,14.82
2022-11-19T10:33:49.614Z,15.08
2022-11-19T10:38:55.356Z,15.20
2022-11-19T10:43:55.390Z,15.29
2022-11-19T10:48:54.159Z,15.42
2022-11-19T10:53:53.327Z,15.38
2022-11-19T10:58:53.232Z,15.56
2022-11-19T11:03:52.707Z,15.46
2022-11-19T11:08:52.438Z,15.68
2022-11-19T11:14:08.807Z,15.64
2022-11-19T11:19:12.413Z,15.72
2022-11-19T11:24:12.960Z,15.62
2022-11-19T11:29:28.711Z,15.78
2022-11-19T11:34:31.013Z,15.72
2022-11-19T11:39:29.323Z,15.78
2022-11-19T11:44:27.930Z,15.85
2022-11-19T11:49:26.659Z,15.86
2022-11-19T11:54:23.456Z,15.79
2022-11-19T11:59:25.952Z,15.99
2022-11-19T12:04:23.781Z,15.92
2022-11-19T12:09:23.654Z,15.91
2022-11-19T12:14:23.549Z,15.94
2022-11-19T12:19:31.207Z,15.92
2022-11-19T12:24:34.307Z,15.87
2022-11-19T12:29:37.756Z,15.86
2022-11-19T12:34:49.808Z,16.28
2022-11-19T12:39:47.110Z,16.01
2022-11-19T12:44:51.967Z,16.11
2022-11-19T12:50:00.761Z,15.92
2022-11-19T12:55:03.806Z,15.94
2022-11-19T13:00:06.012Z,15.98
2022-11-19T13:05:05.885Z,16.05
2022-11-19T13:10:05.652Z,16.05
2022-11-19T13:15:04.266Z,16.10
2022-11-19T13:20:04.467Z,16.10
2022-11-19T13:25:05.657Z,15.98
2022-11-19T13:30:10.109Z,15.96
2022-11-19T13:35:20.894Z,16.05
2022-11-19T13:40:21.349Z,16.07
2022-11-19T13:45:18.080Z,16.03
2022-11-19T13:50:17.166Z,16.09
2022-11-19T13:55:29.519Z,16.10
2022-11-19T14:00:27.511Z,16.11
2022-11-19T14:05:48.220Z,16.10
2022-11-19T14:10:56.879Z,16.07
2022-11-19T14:16:15.800Z,16.08
2022-11-19T14:21:58.451Z,16.09
2022-11-19T14:27:16.729Z,16.07
2022-11-19T14:32:31.681Z,16.01
2022-11-19T14:37:33.422Z,16.01
2022-11-19T14:42:30.102Z,16.03
2022-11-19T14:47:36.092Z,15.89
2022-11-19T14:52:39.763Z,15.93
2022-11-19T14:57:38.265Z,15.94
2022-11-19T15:02:39.839Z,15.96
2022-11-19T15:07:44.851Z,15.92
2022-11-19T15:12:49.894Z,15.90
2022-11-19T15:17:49.915Z,15.38
2022-11-19T15:22:50.144Z,15.62
2022-11-19T15:27:53.239Z,15.71
2022-11-19T15:33:07.762Z,15.74
2022-11-19T15:38:09.219Z,15.17
2022-11-19T15:43:11.505Z,15.34
2022-11-19T15:48:12.830Z,15.26
2022-11-19T15:53:15.026Z,15.39
2022-11-19T15:58:14.883Z,15.45
2022-11-19T16:03:14.192Z,15.46
2022-11-19T16:08:12.870Z,15.33
2022-11-19T16:13:38.710Z,15.26
2022-11-19T16:18:45.614Z,15.17
2022-11-19T16:24:02.518Z,15.18
2022-11-19T16:29:01.164Z,15.28
2022-11-19T16:34:00.594Z,15.25
2022-11-19T16:39:01.031Z,14.97
2022-11-19T16:43:58.193Z,14.90
2022-11-19T16:48:56.376Z,14.84
2022-11-19T16:53:53.697Z,15.16
2022-11-19T16:58:52.538Z,15.23
2022-11-19T17:03:49.392Z,15.25
2022-11-19T17:08:54.677Z,15.29
2022-11-19T17:13:54.150Z,15.29
2022-11-19T17:18:51.205Z,15.22
2022-11-19T17:23:49.125Z,15.01
2022-11-19T17:28:48.394Z,14.87
2022-11-19T17:33:52.798Z,14.85
2022-11-19T17:38:52.014Z,14.81
2022-11-19T17:44:09.734Z,14.69
2022-11-19T17:49:10.039Z,14.73
2022-11-19T17:54:09.461Z,14.76
2022-11-19T17:59:06.088Z,14.72
2022-11-19T18:04:02.791Z,14.58
2022-11-19T18:09:07.334Z,14.51
2022-11-19T18:14:09.358Z,14.53
2022-11-19T18:19:24.794Z,14.12
2022-11-19T18:24:26.060Z,14.31
2022-11-19T18:29:25.604Z,14.29
2022-11-19T18:34:24.859Z,14.16
2022-11-19T18:39:22.203Z,13.70
2022-11-19T18:44:37.606Z,14.13
2022-11-19T18:49:35.744Z,14.18
2022-11-19T18:54:36.661Z,13.95
2022-11-19T18:59:34.675Z,13.56
2022-11-19T19:04:31.463Z,13.43
2022-11-19T19:09:28.434Z,13.38
2022-11-19T19:14:25.114Z,13.37
2022-11-19T19:19:22.887Z,13.62
2022-11-19T19:24:20.231Z,13.35
2022-11-19T19:29:16.963Z,13.35
2022-11-19T19:34:13.761Z,13.45
2022-11-19T19:39:11.883Z,13.82
2022-11-19T19:44:10.076Z,14.03
2022-11-19T19:49:06.704Z,13.77
2022-11-19T19:54:03.603Z,13.69
2022-11-19T19:59:01.704Z,13.64
2022-11-19T20:04:02.239Z,13.52
2022-11-19T20:09:00.022Z,13.01
2022-11-19T20:13:59.932Z,13.06
2022-11-19T20:19:00.964Z,13.07
2022-11-19T20:24:00.471Z,12.84
2022-11-19T20:29:00.212Z,12.79
2022-11-19T20:34:00.505Z,12.84
2022-11-19T20:38:57.675Z,13.11
2022-11-19T20:44:14.697Z,12.79
2022-11-19T20:49:17.184Z,12.84
2022-11-19T20:54:14.510Z,12.79
2022-11-19T20:59:11.682Z,12.77
2022-11-19T21:04:11.304Z,12.68
2022-11-19T21:09:08.837Z,12.78
2022-11-19T21:14:07.724Z,12.56
2022-11-19T21:19:04.616Z,12.36
2022-11-19T21:24:04.765Z,12.72
2022-11-19T21:29:02.229Z,12.56
2022-11-19T21:34:09.963Z,12.41
2022-11-19T21:39:07.306Z,12.37
2022-11-19T21:44:08.393Z,12.55
2022-11-19T21:49:08.302Z,12.18
2022-11-19T21:54:05.133Z,11.99
2022-11-19T21:59:04.925Z,11.92
2022-11-19T22:04:04.113Z,12.24
2022-11-19T22:09:01.375Z,12.43
2022-11-19T22:14:03.475Z,12.38
2022-11-19T22:19:00.518Z,12.72
2022-11-19T22:23:58.038Z,12.32
2022-11-19T22:28:58.114Z,12.32
2022-11-19T22:33:55.027Z,12.31
2022-11-19T22:38:51.964Z,12.49
2022-11-19T22:43:52.147Z,12.66
2022-11-19T22:48:48.739Z,12.71
2022-11-19T22:53:45.813Z,12.58
2022-11-19T22:58:45.027Z,12.58
2022-11-19T23:03:42.299Z,12.43
2022-11-19T23:08:41.692Z,12.65
2022-11-19T23:13:40.369Z,12.83
2022-11-19T23:18:37.477Z,12.79
2022-11-19T23:23:35.025Z,13.02
2022-11-19T23:28:33.658Z,12.83
2022-11-19T23:33:30.786Z,12.97
2022-11-19T23:38:30.557Z,12.83
2022-11-19T23:43:28.659Z,13.15
2022-11-19T23:48:25.318Z,12.91
2022-11-19T23:53:26.956Z,12.98
2022-11-19T23:58:26.880Z,12.77
